Aérodrome :
LOGIN :

S'inscrire | Disclaimer

   EN    FR    IT 

 










Légende :    VFR   VFR Marginal   IFR   IFR Intensif   IFR Très Intensif
Visi : 
Plafond : 
>= 8 km
>= 3000ft
5 à 8 km
1000 à 3000 ft
1500m à 5 km
500 à 1000 ft
800 à 1500m
200 à 500 ft
< 800m
< 200 ft
Symboles :   Orages  Brouillard  Fortes neiges  Fortes précipitations  Vent > 20 kt
SIGMETs :   Divers  Orages  Givrage  Turbulence  Onde Orograph.  Cendres Volcan.







- Altitude de l'aérodrome : 401 ft
- Code IATA : LEQ
- Voir les cartes d'approche


EGHC - Land's End

DERNIER METAR :
  • 241220Z 04007KT 9999 FEW015 08/05 Q1012

METARs EXPIRÉS :
  • 241150Z 03010KT 9999 FEW010 SCT015 08/05 Q1012
  • 241120Z 36010KT 9999 FEW015 08/05 Q1012
  • 241050Z 22005KT 9999 FEW015 08/05 Q1012
  • 241020Z 26002KT 9999 VCSH FEW008 SCT035 07/06 Q1012
  • 240950Z 00000KT 9999 VCSH FEW008 SCT035CB 07/05 Q1011

TAF AMD TAF EGHC
Valide du 24 à 12h jusqu'au 24 à 18h UTC


241239Z 2412/2418 03009KT 9999 SCT015
TEMPO 2412/2416 6000 SHRA
PROB30
TEMPO 2412/2415 3000 +SHRA
BECMG 2415/2418 32010KT
Pas de NOTAMs connus pour ce terrain.



MET'MAP, la Météo Aéronautique d'un coup d'oeil ! - Copyright ORBIFLY Décembre 2007 - Disclaimer

ORBIFLY MET'MAP TEAM :

Programmation & Développement : Alexandra Zaïnal
Conception & Développement : Baudouin d'Aumeries
Co-Programmation & Développement : Marc-Olivier Méhu
Soutien technique & logistique : Manuel Goepfert

Contact : metmap@orbifly.com




SOURCES & CREDITS :

   NOAA